createdAt,value
2023-05-17T00:03:33.333Z,10.27
2023-05-17T00:08:36.744Z,10.24
2023-05-17T00:13:41.490Z,10.22
2023-05-17T00:18:44.679Z,10.21
2023-05-17T00:23:48.008Z,10.20
2023-05-17T00:28:51.324Z,10.20
2023-05-17T00:33:54.432Z,10.20
2023-05-17T00:38:57.733Z,10.15
2023-05-17T00:44:01.057Z,10.13
2023-05-17T00:49:04.360Z,10.12
2023-05-17T00:54:08.717Z,10.12
2023-05-17T00:59:14.109Z,10.10
2023-05-17T01:04:17.511Z,10.06
2023-05-17T01:09:21.008Z,10.02
2023-05-17T01:14:33.437Z,10.00
2023-05-17T01:19:59.812Z,9.99
2023-05-17T01:25:24.904Z,9.98
2023-05-17T01:30:29.679Z,9.96
2023-05-17T01:35:33.007Z,9.94
2023-05-17T01:40:42.415Z,9.94
2023-05-17T01:46:07.945Z,9.92
2023-05-17T01:51:17.703Z,9.91
2023-05-17T01:56:27.677Z,9.91
2023-05-17T02:01:32.474Z,9.89
2023-05-17T02:06:35.833Z,9.89
2023-05-17T02:11:39.143Z,9.88
2023-05-17T02:16:42.664Z,9.87
2023-05-17T02:21:45.773Z,9.88
2023-05-17T02:26:48.980Z,9.85
2023-05-17T02:31:52.083Z,9.82
2023-05-17T02:36:55.186Z,9.81
2023-05-17T02:41:58.396Z,9.79
2023-05-17T02:47:02.132Z,9.78
2023-05-17T02:52:05.671Z,9.75
2023-05-17T02:57:08.839Z,9.73
2023-05-17T03:02:11.974Z,9.72
2023-05-17T03:07:15.357Z,9.72
2023-05-17T03:12:18.562Z,9.73
2023-05-17T03:17:21.770Z,9.74
2023-05-17T03:22:25.081Z,9.76
2023-05-17T03:27:28.411Z,9.78
2023-05-17T03:32:31.888Z,9.80
2023-05-17T03:37:35.334Z,9.82
2023-05-17T03:42:38.832Z,9.85
2023-05-17T03:47:43.512Z,9.88
2023-05-17T03:52:46.686Z,9.91
2023-05-17T03:57:50.718Z,9.96
2023-05-17T04:02:53.983Z,9.99
2023-05-17T04:07:57.233Z,10.06
2023-05-17T04:13:00.647Z,10.13
2023-05-17T04:18:03.859Z,10.21
2023-05-17T04:23:07.165Z,10.27
2023-05-17T04:28:10.898Z,10.31
2023-05-17T04:33:14.542Z,10.35
2023-05-17T04:38:18.119Z,10.41
2023-05-17T04:43:21.440Z,10.42
2023-05-17T04:48:26.517Z,10.43
2023-05-17T04:53:31.078Z,10.42
2023-05-17T04:58:34.338Z,10.44
2023-05-17T05:03:37.990Z,10.48
2023-05-17T05:08:41.360Z,10.57
2023-05-17T05:13:44.772Z,10.70
2023-05-17T05:18:48.146Z,10.83
2023-05-17T05:23:51.635Z,11.02
2023-05-17T05:28:54.905Z,11.16
2023-05-17T05:33:58.144Z,11.28
2023-05-17T05:39:01.837Z,11.46
2023-05-17T05:44:05.575Z,11.75
2023-05-17T05:49:08.831Z,12.02
2023-05-17T05:54:13.547Z,12.23
2023-05-17T05:59:16.723Z,12.40
2023-05-17T06:04:22.726Z,12.65
2023-05-17T06:09:33.501Z,12.96
2023-05-17T06:14:37.822Z,13.32
2023-05-17T06:19:41.148Z,13.85
2023-05-17T06:24:44.534Z,14.36
2023-05-17T06:29:47.850Z,14.92
2023-05-17T06:34:51.155Z,15.53
2023-05-17T06:40:10.221Z,15.93
2023-05-17T06:45:19.080Z,16.09
2023-05-17T06:50:22.388Z,16.27
2023-05-17T06:55:25.592Z,16.54
2023-05-17T07:00:29.436Z,16.68
2023-05-17T07:05:34.367Z,16.74
2023-05-17T07:10:37.726Z,16.81
2023-05-17T07:15:41.188Z,16.73
2023-05-17T07:20:44.666Z,16.59
2023-05-17T07:25:48.120Z,16.59
2023-05-17T07:30:51.330Z,16.55
2023-05-17T07:35:54.677Z,16.43
2023-05-17T07:40:59.690Z,16.36
2023-05-17T07:46:03.208Z,16.50
2023-05-17T07:51:06.532Z,17.12
2023-05-17T07:56:09.825Z,18.25
2023-05-17T08:01:13.241Z,19.80
2023-05-17T08:06:18.069Z,21.42
2023-05-17T08:11:21.501Z,22.07
2023-05-17T08:16:24.706Z,22.25
2023-05-17T08:21:27.910Z,22.85
2023-05-17T08:26:31.334Z,23.72
2023-05-17T08:31:34.651Z,24.90
2023-05-17T08:36:38.404Z,26.27
2023-05-17T08:41:41.869Z,27.32
2023-05-17T08:46:53.625Z,27.44
2023-05-17T08:52:00.022Z,26.53
2023-05-17T08:57:06.940Z,26.49
2023-05-17T09:02:11.564Z,26.54
2023-05-17T09:07:17.168Z,25.87
2023-05-17T09:12:23.455Z,25.28
2023-05-17T09:17:28.222Z,25.70
2023-05-17T09:22:32.021Z,25.98
2023-05-17T09:27:35.381Z,25.73
2023-05-17T09:37:50.757Z,23.89
2023-05-17T09:42:55.691Z,22.90
2023-05-17T09:48:11.301Z,22.04
2023-05-17T09:53:31.632Z,21.65
2023-05-17T09:58:37.414Z,21.54
2023-05-17T10:03:41.114Z,21.39
2023-05-17T10:08:46.694Z,21.20
2023-05-17T10:14:01.904Z,20.82
2023-05-17T10:19:06.376Z,20.76
2023-05-17T10:24:11.829Z,21.00
2023-05-17T10:29:17.531Z,21.50
2023-05-17T10:34:21.268Z,21.82
2023-05-17T10:39:25.157Z,21.78
2023-05-17T10:44:33.071Z,21.95
2023-05-17T10:49:45.401Z,22.03
2023-05-17T10:54:51.229Z,21.94
2023-05-17T11:00:00.904Z,21.40
2023-05-17T11:05:05.731Z,20.89
2023-05-17T11:10:14.374Z,20.57
2023-05-17T11:15:18.232Z,19.98
2023-05-17T11:20:24.520Z,19.60
2023-05-17T11:25:41.174Z,19.59
2023-05-17T11:30:51.519Z,19.57
2023-05-17T11:35:56.291Z,19.62
2023-05-17T11:46:28.271Z,19.89
2023-05-17T11:51:33.112Z,20.12
2023-05-17T11:56:43.671Z,20.41
2023-05-17T12:01:49.114Z,20.68
2023-05-17T12:06:56.349Z,20.45
2023-05-17T12:12:04.850Z,20.17
2023-05-17T12:17:09.940Z,19.97
2023-05-17T12:22:13.969Z,19.97
2023-05-17T12:27:25.889Z,19.93
2023-05-17T12:32:29.226Z,19.98
2023-05-17T12:37:32.848Z,20.00
2023-05-17T12:42:36.535Z,19.68
2023-05-17T12:47:39.885Z,19.13
2023-05-17T12:52:43.155Z,18.71
2023-05-17T12:57:52.109Z,18.50
2023-05-17T13:02:56.279Z,18.32
2023-05-17T13:08:20.154Z,18.09
2023-05-17T13:13:23.742Z,17.97
2023-05-17T13:18:27.254Z,17.95
2023-05-17T13:23:30.663Z,18.09
2023-05-17T13:28:34.283Z,18.34
2023-05-17T13:33:39.273Z,18.48
2023-05-17T13:38:42.970Z,18.55
2023-05-17T13:43:46.368Z,18.37
2023-05-17T13:48:50.015Z,18.26
2023-05-17T13:53:53.902Z,18.26
2023-05-17T13:58:57.223Z,18.20
2023-05-17T14:04:01.110Z,18.19
2023-05-17T14:09:04.960Z,18.08
2023-05-17T14:14:08.426Z,18.02
2023-05-17T14:19:12.197Z,18.13
2023-05-17T14:24:15.815Z,18.24
2023-05-17T14:29:19.440Z,18.09
2023-05-17T14:34:22.807Z,17.83
2023-05-17T14:39:26.565Z,17.63
2023-05-17T14:44:30.385Z,17.34
2023-05-17T14:49:33.798Z,16.99
2023-05-17T14:54:37.117Z,16.77
2023-05-17T14:59:42.114Z,16.79
2023-05-17T15:04:47.764Z,16.92
2023-05-17T15:09:52.091Z,16.95
2023-05-17T15:14:55.774Z,16.92
2023-05-17T15:20:00.320Z,16.76
2023-05-17T15:25:05.733Z,16.59
2023-05-17T15:30:11.320Z,16.43
2023-05-17T15:35:16.605Z,16.14
2023-05-17T15:40:25.177Z,15.79
2023-05-17T15:45:29.593Z,15.43
2023-05-17T15:50:33.080Z,15.20
2023-05-17T15:55:36.483Z,14.92
2023-05-17T16:00:40.117Z,14.58
2023-05-17T16:05:44.402Z,14.25
2023-05-17T16:10:51.299Z,14.09
2023-05-17T16:15:56.610Z,14.03
2023-05-17T16:21:04.384Z,13.96
2023-05-17T16:26:09.165Z,13.82
2023-05-17T16:31:13.206Z,13.63
2023-05-17T16:36:17.418Z,13.42
2023-05-17T16:41:22.158Z,13.21
2023-05-17T16:46:26.704Z,12.98
2023-05-17T16:51:30.366Z,12.80
2023-05-17T16:56:34.089Z,12.61
2023-05-17T17:01:37.617Z,12.41
2023-05-17T17:06:41.483Z,12.25
2023-05-17T17:11:46.477Z,12.05
2023-05-17T17:16:50.362Z,11.86
2023-05-17T17:21:53.862Z,11.70
2023-05-17T17:26:57.591Z,11.56
2023-05-17T17:32:01.231Z,11.41
2023-05-17T17:37:05.633Z,11.23
2023-05-17T17:42:11.124Z,11.06
2023-05-17T17:47:14.682Z,10.91
2023-05-17T17:52:18.750Z,10.78
2023-05-17T17:57:23.216Z,10.66
2023-05-17T18:02:26.760Z,10.54
2023-05-17T18:07:31.238Z,10.42
2023-05-17T18:12:34.663Z,10.31
2023-05-17T18:17:39.533Z,10.18
2023-05-17T18:22:43.133Z,10.04
2023-05-17T18:27:46.736Z,9.91
2023-05-17T18:32:50.435Z,9.80
2023-05-17T18:37:55.200Z,9.68
2023-05-17T18:42:58.618Z,9.56
2023-05-17T18:48:03.704Z,9.44
2023-05-17T18:53:07.277Z,9.33
2023-05-17T18:58:10.797Z,9.22
2023-05-17T19:03:15.490Z,9.10
2023-05-17T19:08:19.656Z,8.96
2023-05-17T19:13:22.981Z,8.84
2023-05-17T19:18:26.436Z,8.72
2023-05-17T19:23:32.882Z,8.60
2023-05-17T19:28:36.395Z,8.50
2023-05-17T19:33:39.917Z,8.41
2023-05-17T19:38:44.785Z,8.32
2023-05-17T19:43:48.692Z,8.25
2023-05-17T19:48:53.382Z,8.17
2023-05-17T19:53:57.153Z,8.11
2023-05-17T19:59:01.533Z,8.05
2023-05-17T20:04:05.763Z,7.98
2023-05-17T20:09:09.565Z,7.93
2023-05-17T20:14:16.792Z,7.89
2023-05-17T20:19:21.217Z,7.85
2023-05-17T20:24:29.187Z,7.83
2023-05-17T20:29:38.875Z,7.81
2023-05-17T20:34:42.946Z,7.78
2023-05-17T20:39:46.762Z,7.74
2023-05-17T20:44:53.906Z,7.70
2023-05-17T20:49:57.509Z,7.66
2023-05-17T20:55:02.255Z,7.65
2023-05-17T21:00:09.910Z,7.63
2023-05-17T21:05:13.701Z,7.61
2023-05-17T21:10:18.440Z,7.57
2023-05-17T21:15:22.264Z,7.54
2023-05-17T21:20:26.908Z,7.54
2023-05-17T21:25:31.227Z,7.53
2023-05-17T21:30:34.955Z,7.51
2023-05-17T21:35:38.371Z,7.48
2023-05-17T21:40:41.992Z,7.45
2023-05-17T21:45:45.299Z,7.41
2023-05-17T21:50:49.993Z,7.39
2023-05-17T21:56:02.076Z,7.37
2023-05-17T22:01:07.050Z,7.35
2023-05-17T22:06:10.739Z,7.33
2023-05-17T22:11:15.019Z,7.30
2023-05-17T22:16:26.522Z,7.26
2023-05-17T22:21:30.589Z,7.22
2023-05-17T22:26:33.796Z,7.18
2023-05-17T22:31:38.192Z,7.15
2023-05-17T22:36:42.455Z,7.13
2023-05-17T22:41:45.675Z,7.10
2023-05-17T22:46:48.932Z,7.08
2023-05-17T22:51:53.718Z,7.07
2023-05-17T22:56:57.058Z,7.05
2023-05-17T23:02:00.258Z,7.03
2023-05-17T23:07:04.416Z,7.02
2023-05-17T23:12:09.089Z,7.01
2023-05-17T23:17:12.533Z,7.00
2023-05-17T23:22:16.970Z,6.97
2023-05-17T23:27:22.430Z,6.92
2023-05-17T23:32:25.664Z,6.84
2023-05-17T23:37:28.756Z,6.75
2023-05-17T23:42:32.581Z,6.66
2023-05-17T23:47:36.125Z,6.56
2023-05-17T23:52:39.954Z,6.47
2023-05-17T23:57:44.035Z,6.37
